Windyville, Missouri
Current Conditions -  °F | °C
As of 12:55 AM on Thursday 27 Nov 2014 (Local Time) from KH21 Reporting Station
Overcast Overcast  
Wind Chill: 22°   Ceiling: 1000
Heat Index: 32°   Visibility: 7mi
Dew Point: 28°   Wind: 15mph
Humidity: 87%   Direction: 290°WNW
Pressure: 30.36"   Gusts: 21mph
Location:  37.71°N, 92.93°W
Report Text: KH21 270655Z AUTO 29013G18KT 7SM OVC010 00/M02 A3036 RMK AO2
Loading
Personal Weather Stations






























Interactive Weather Map New forecast layout! Learn more

10-Day Weather Forecast

Advertisements
Track Severe Weather on mobile